sensor_id;sensor_type;location;lat;lon;timestamp;temperature;humidity
1455;DHT22;721;48.168;12.818;2022-09-09T00:00:11;15.40;30.60
1455;DHT22;721;48.168;12.818;2022-09-09T00:02:39;15.30;33.10
1455;DHT22;721;48.168;12.818;2022-09-09T00:05:19;15.40;30.60
1455;DHT22;721;48.168;12.818;2022-09-09T00:07:57;15.40;30.00
1455;DHT22;721;48.168;12.818;2022-09-09T00:10:28;15.20;32.30
1455;DHT22;721;48.168;12.818;2022-09-09T00:13:13;15.10;34.00
1455;DHT22;721;48.168;12.818;2022-09-09T00:15:48;15.10;33.90
1455;DHT22;721;48.168;12.818;2022-09-09T00:18:24;15.00;34.70
1455;DHT22;721;48.168;12.818;2022-09-09T00:20:59;14.90;35.40
1455;DHT22;721;48.168;12.818;2022-09-09T00:23:30;14.90;34.70
1455;DHT22;721;48.168;12.818;2022-09-09T00:26:07;15.10;33.80
1455;DHT22;721;48.168;12.818;2022-09-09T00:28:48;14.80;35.70
1455;DHT22;721;48.168;12.818;2022-09-09T00:31:22;14.80;36.90
1455;DHT22;721;48.168;12.818;2022-09-09T00:33:50;14.60;39.70
1455;DHT22;721;48.168;12.818;2022-09-09T00:36:21;14.70;39.90
1455;DHT22;721;48.168;12.818;2022-09-09T00:38:53;14.90;35.20
1455;DHT22;721;48.168;12.818;2022-09-09T00:41:25;14.90;34.90
1455;DHT22;721;48.168;12.818;2022-09-09T00:44:01;14.80;37.50
1455;DHT22;721;48.168;12.818;2022-09-09T00:46:49;15.00;33.90
1455;DHT22;721;48.168;12.818;2022-09-09T00:49:30;15.20;31.40
1455;DHT22;721;48.168;12.818;2022-09-09T00:52:08;15.20;30.00
1455;DHT22;721;48.168;12.818;2022-09-09T00:54:49;15.20;29.80
1455;DHT22;721;48.168;12.818;2022-09-09T00:57:26;15.30;29.60
1455;DHT22;721;48.168;12.818;2022-09-09T01:00:17;15.20;29.90
1455;DHT22;721;48.168;12.818;2022-09-09T01:02:52;14.80;33.80
1455;DHT22;721;48.168;12.818;2022-09-09T01:05:27;14.60;36.80
1455;DHT22;721;48.168;12.818;2022-09-09T01:07:58;14.50;36.80
1455;DHT22;721;48.168;12.818;2022-09-09T01:10:36;14.40;39.70
1455;DHT22;721;48.168;12.818;2022-09-09T01:13:11;14.70;37.10
1455;DHT22;721;48.168;12.818;2022-09-09T01:15:44;14.90;34.20
1455;DHT22;721;48.168;12.818;2022-09-09T01:18:14;14.80;32.90
1455;DHT22;721;48.168;12.818;2022-09-09T01:20:48;14.60;34.20
1455;DHT22;721;48.168;12.818;2022-09-09T01:23:32;14.60;36.10
1455;DHT22;721;48.168;12.818;2022-09-09T01:26:16;14.80;34.30
1455;DHT22;721;48.168;12.818;2022-09-09T01:28:46;14.90;33.90
1455;DHT22;721;48.168;12.818;2022-09-09T01:31:17;14.80;34.20
1455;DHT22;721;48.168;12.818;2022-09-09T01:33:45;14.80;33.60
1455;DHT22;721;48.168;12.818;2022-09-09T01:36:17;14.80;34.60
1455;DHT22;721;48.168;12.818;2022-09-09T01:38:46;14.90;33.80
1455;DHT22;721;48.168;12.818;2022-09-09T01:41:14;14.90;32.90
1455;DHT22;721;48.168;12.818;2022-09-09T01:43:41;14.90;33.70
1455;DHT22;721;48.168;12.818;2022-09-09T01:46:09;15.10;30.80
1455;DHT22;721;48.168;12.818;2022-09-09T01:48:37;15.20;30.40
1455;DHT22;721;48.168;12.818;2022-09-09T01:51:04;15.20;30.00
1455;DHT22;721;48.168;12.818;2022-09-09T01:53:31;15.10;29.80
1455;DHT22;721;48.168;12.818;2022-09-09T01:56:05;15.00;32.30
1455;DHT22;721;48.168;12.818;2022-09-09T01:58:45;15.10;30.30
1455;DHT22;721;48.168;12.818;2022-09-09T02:01:21;15.10;31.80
1455;DHT22;721;48.168;12.818;2022-09-09T02:03:54;15.20;30.40
1455;DHT22;721;48.168;12.818;2022-09-09T02:06:27;14.90;33.50
1455;DHT22;721;48.168;12.818;2022-09-09T02:08:56;14.80;35.90
1455;DHT22;721;48.168;12.818;2022-09-09T02:11:26;14.90;35.00
1455;DHT22;721;48.168;12.818;2022-09-09T02:13:59;14.90;35.20
1455;DHT22;721;48.168;12.818;2022-09-09T02:16:29;15.10;33.70
1455;DHT22;721;48.168;12.818;2022-09-09T02:19:02;15.10;32.00
1455;DHT22;721;48.168;12.818;2022-09-09T02:21:31;14.90;37.00
1455;DHT22;721;48.168;12.818;2022-09-09T02:24:03;15.10;33.60
1455;DHT22;721;48.168;12.818;2022-09-09T02:26:31;15.10;32.80
1455;DHT22;721;48.168;12.818;2022-09-09T02:29:05;15.20;32.50
1455;DHT22;721;48.168;12.818;2022-09-09T02:31:34;15.00;35.40
1455;DHT22;721;48.168;12.818;2022-09-09T02:34:03;14.90;35.40
1455;DHT22;721;48.168;12.818;2022-09-09T02:36:33;14.80;38.60
1455;DHT22;721;48.168;12.818;2022-09-09T02:39:02;15.00;34.90
1455;DHT22;721;48.168;12.818;2022-09-09T02:41:33;15.00;34.70
1455;DHT22;721;48.168;12.818;2022-09-09T02:44:09;15.00;34.90
1455;DHT22;721;48.168;12.818;2022-09-09T02:47:03;15.30;31.90
1455;DHT22;721;48.168;12.818;2022-09-09T02:49:39;15.30;31.60
1455;DHT22;721;48.168;12.818;2022-09-09T02:52:13;15.10;34.60
1455;DHT22;721;48.168;12.818;2022-09-09T02:54:42;15.30;32.60
1455;DHT22;721;48.168;12.818;2022-09-09T02:57:11;15.40;31.60
1455;DHT22;721;48.168;12.818;2022-09-09T02:59:40;15.20;35.30
1455;DHT22;721;48.168;12.818;2022-09-09T03:02:07;15.00;37.10
1455;DHT22;721;48.168;12.818;2022-09-09T03:04:36;14.90;39.20
1455;DHT22;721;48.168;12.818;2022-09-09T03:07:04;14.90;38.70
1455;DHT22;721;48.168;12.818;2022-09-09T03:09:31;15.10;37.60
1455;DHT22;721;48.168;12.818;2022-09-09T03:11:58;15.20;34.80
1455;DHT22;721;48.168;12.818;2022-09-09T03:14:25;15.30;35.30
1455;DHT22;721;48.168;12.818;2022-09-09T03:16:55;15.40;33.60
1455;DHT22;721;48.168;12.818;2022-09-09T03:19:23;15.40;33.30
1455;DHT22;721;48.168;12.818;2022-09-09T03:21:51;15.30;35.20
1455;DHT22;721;48.168;12.818;2022-09-09T03:24:18;15.30;34.40
1455;DHT22;721;48.168;12.818;2022-09-09T03:26:45;15.30;34.40
1455;DHT22;721;48.168;12.818;2022-09-09T03:29:12;15.20;37.00
1455;DHT22;721;48.168;12.818;2022-09-09T03:31:40;15.20;36.60
1455;DHT22;721;48.168;12.818;2022-09-09T03:34:09;15.20;35.50
1455;DHT22;721;48.168;12.818;2022-09-09T03:36:37;15.10;38.30
1455;DHT22;721;48.168;12.818;2022-09-09T03:39:04;15.10;39.20
1455;DHT22;721;48.168;12.818;2022-09-09T03:41:30;15.20;38.70
1455;DHT22;721;48.168;12.818;2022-09-09T03:43:57;15.40;36.10
1455;DHT22;721;48.168;12.818;2022-09-09T03:46:25;15.50;37.60
1455;DHT22;721;48.168;12.818;2022-09-09T03:48:52;15.60;36.70
1455;DHT22;721;48.168;12.818;2022-09-09T03:51:20;15.40;41.10
1455;DHT22;721;48.168;12.818;2022-09-09T03:53:47;15.10;45.40
1455;DHT22;721;48.168;12.818;2022-09-09T03:56:15;15.20;43.30
1455;DHT22;721;48.168;12.818;2022-09-09T03:58:46;15.20;44.70
1455;DHT22;721;48.168;12.818;2022-09-09T04:01:14;15.20;45.00
1455;DHT22;721;48.168;12.818;2022-09-09T04:03:43;15.30;43.40
1455;DHT22;721;48.168;12.818;2022-09-09T04:06:11;15.40;42.40
1455;DHT22;721;48.168;12.818;2022-09-09T04:08:41;15.30;44.70
1455;DHT22;721;48.168;12.818;2022-09-09T04:11:09;15.20;45.50
1455;DHT22;721;48.168;12.818;2022-09-09T04:13:37;15.20;46.80
1455;DHT22;721;48.168;12.818;2022-09-09T04:16:05;15.20;48.40
1455;DHT22;721;48.168;12.818;2022-09-09T04:18:32;15.20;47.80
1455;DHT22;721;48.168;12.818;2022-09-09T04:20:59;15.30;46.50
1455;DHT22;721;48.168;12.818;2022-09-09T04:23:29;15.50;44.60
1455;DHT22;721;48.168;12.818;2022-09-09T04:25:58;15.50;44.60
1455;DHT22;721;48.168;12.818;2022-09-09T04:28:28;15.40;47.40
1455;DHT22;721;48.168;12.818;2022-09-09T04:30:56;15.40;48.50
1455;DHT22;721;48.168;12.818;2022-09-09T04:33:23;15.50;46.90
1455;DHT22;721;48.168;12.818;2022-09-09T04:35:52;15.40;48.30
1455;DHT22;721;48.168;12.818;2022-09-09T04:38:20;15.40;48.10
1455;DHT22;721;48.168;12.818;2022-09-09T04:40:49;15.40;47.40
1455;DHT22;721;48.168;12.818;2022-09-09T04:43:18;15.40;45.50
1455;DHT22;721;48.168;12.818;2022-09-09T04:45:54;15.40;47.60
1455;DHT22;721;48.168;12.818;2022-09-09T04:48:21;15.30;45.80
1455;DHT22;721;48.168;12.818;2022-09-09T04:50:56;15.30;46.30
1455;DHT22;721;48.168;12.818;2022-09-09T04:53:23;15.30;46.50
1455;DHT22;721;48.168;12.818;2022-09-09T04:55:51;15.30;44.80
1455;DHT22;721;48.168;12.818;2022-09-09T04:58:19;15.30;44.40
1455;DHT22;721;48.168;12.818;2022-09-09T05:00:47;15.20;47.00
1455;DHT22;721;48.168;12.818;2022-09-09T05:03:14;15.10;47.90
1455;DHT22;721;48.168;12.818;2022-09-09T05:05:40;15.20;47.30
1455;DHT22;721;48.168;12.818;2022-09-09T05:08:08;15.30;48.30
1455;DHT22;721;48.168;12.818;2022-09-09T05:10:37;15.30;49.50
1455;DHT22;721;48.168;12.818;2022-09-09T05:13:04;15.30;47.50
1455;DHT22;721;48.168;12.818;2022-09-09T05:15:33;15.20;45.50
1455;DHT22;721;48.168;12.818;2022-09-09T05:18:01;15.10;49.20
1455;DHT22;721;48.168;12.818;2022-09-09T05:20:29;15.10;49.90
1455;DHT22;721;48.168;12.818;2022-09-09T05:22:56;15.10;50.10
1455;DHT22;721;48.168;12.818;2022-09-09T05:25:24;15.10;50.00
1455;DHT22;721;48.168;12.818;2022-09-09T05:27:51;15.00;54.60
1455;DHT22;721;48.168;12.818;2022-09-09T05:30:19;15.00;53.20
1455;DHT22;721;48.168;12.818;2022-09-09T05:32:47;15.20;52.90
1455;DHT22;721;48.168;12.818;2022-09-09T05:35:14;15.20;53.70
1455;DHT22;721;48.168;12.818;2022-09-09T05:37:41;15.30;51.10
1455;DHT22;721;48.168;12.818;2022-09-09T05:40:08;15.40;50.90
1455;DHT22;721;48.168;12.818;2022-09-09T05:42:36;15.40;52.90
1455;DHT22;721;48.168;12.818;2022-09-09T05:45:05;15.50;48.90
1455;DHT22;721;48.168;12.818;2022-09-09T05:47:33;15.30;50.70
1455;DHT22;721;48.168;12.818;2022-09-09T05:50:02;15.30;53.10
1455;DHT22;721;48.168;12.818;2022-09-09T05:52:29;15.50;51.80
1455;DHT22;721;48.168;12.818;2022-09-09T05:54:56;15.60;50.90
1455;DHT22;721;48.168;12.818;2022-09-09T05:57:24;15.50;54.70
1455;DHT22;721;48.168;12.818;2022-09-09T05:59:51;15.60;51.50
1455;DHT22;721;48.168;12.818;2022-09-09T06:02:19;15.80;49.50
1455;DHT22;721;48.168;12.818;2022-09-09T06:04:45;15.80;49.50
1455;DHT22;721;48.168;12.818;2022-09-09T06:07:13;15.80;54.20
1455;DHT22;721;48.168;12.818;2022-09-09T06:09:41;15.60;53.60
1455;DHT22;721;48.168;12.818;2022-09-09T06:12:07;15.70;51.60
1455;DHT22;721;48.168;12.818;2022-09-09T06:14:34;15.80;50.60
1455;DHT22;721;48.168;12.818;2022-09-09T06:17:02;15.80;51.70
1455;DHT22;721;48.168;12.818;2022-09-09T06:19:29;15.90;53.20
1455;DHT22;721;48.168;12.818;2022-09-09T06:21:56;16.10;50.90
1455;DHT22;721;48.168;12.818;2022-09-09T06:24:24;16.10;52.50
1455;DHT22;721;48.168;12.818;2022-09-09T06:26:51;16.00;55.50
1455;DHT22;721;48.168;12.818;2022-09-09T06:29:19;15.90;56.50
1455;DHT22;721;48.168;12.818;2022-09-09T06:31:46;16.00;55.40
1455;DHT22;721;48.168;12.818;2022-09-09T06:34:13;16.00;55.40
1455;DHT22;721;48.168;12.818;2022-09-09T06:36:39;16.00;56.70
1455;DHT22;721;48.168;12.818;2022-09-09T06:39:07;16.10;50.40
1455;DHT22;721;48.168;12.818;2022-09-09T06:41:35;16.10;51.00
1455;DHT22;721;48.168;12.818;2022-09-09T06:44:03;16.00;53.90
1455;DHT22;721;48.168;12.818;2022-09-09T06:46:31;16.00;50.80
1455;DHT22;721;48.168;12.818;2022-09-09T06:48:59;16.10;41.90
1455;DHT22;721;48.168;12.818;2022-09-09T06:51:27;16.20;41.00
1455;DHT22;721;48.168;12.818;2022-09-09T06:53:56;16.10;44.20
1455;DHT22;721;48.168;12.818;2022-09-09T06:56:25;16.00;49.90
1455;DHT22;721;48.168;12.818;2022-09-09T06:58:55;16.00;50.20
1455;DHT22;721;48.168;12.818;2022-09-09T07:01:25;16.10;45.80
1455;DHT22;721;48.168;12.818;2022-09-09T07:03:54;16.10;46.20
1455;DHT22;721;48.168;12.818;2022-09-09T07:06:23;16.30;46.30
1455;DHT22;721;48.168;12.818;2022-09-09T07:08:51;16.30;44.20
1455;DHT22;721;48.168;12.818;2022-09-09T07:11:19;16.30;39.80
1455;DHT22;721;48.168;12.818;2022-09-09T07:13:46;16.40;35.60
1455;DHT22;721;48.168;12.818;2022-09-09T07:16:16;16.40;38.10
1455;DHT22;721;48.168;12.818;2022-09-09T07:18:44;16.50;37.70
1455;DHT22;721;48.168;12.818;2022-09-09T07:21:12;16.40;38.40
1455;DHT22;721;48.168;12.818;2022-09-09T07:23:40;16.50;40.80
1455;DHT22;721;48.168;12.818;2022-09-09T07:26:12;16.70;35.60
1455;DHT22;721;48.168;12.818;2022-09-09T07:28:39;16.70;37.30
1455;DHT22;721;48.168;12.818;2022-09-09T07:31:07;16.70;38.30
1455;DHT22;721;48.168;12.818;2022-09-09T07:33:40;16.70;36.40
1455;DHT22;721;48.168;12.818;2022-09-09T07:36:09;16.70;36.30
1455;DHT22;721;48.168;12.818;2022-09-09T07:38:40;16.80;34.40
1455;DHT22;721;48.168;12.818;2022-09-09T07:41:10;16.60;41.00
1455;DHT22;721;48.168;12.818;2022-09-09T07:43:38;16.60;33.00
1455;DHT22;721;48.168;12.818;2022-09-09T07:46:07;16.70;35.90
1455;DHT22;721;48.168;12.818;2022-09-09T07:48:34;16.70;32.90
1455;DHT22;721;48.168;12.818;2022-09-09T07:51:07;16.80;31.90
1455;DHT22;721;48.168;12.818;2022-09-09T07:53:34;16.70;41.80
1455;DHT22;721;48.168;12.818;2022-09-09T07:56:04;16.70;38.00
1455;DHT22;721;48.168;12.818;2022-09-09T07:58:31;16.80;31.90
1455;DHT22;721;48.168;12.818;2022-09-09T08:00:58;16.90;34.70
1455;DHT22;721;48.168;12.818;2022-09-09T08:03:25;16.80;37.00
1455;DHT22;721;48.168;12.818;2022-09-09T08:05:52;16.70;39.90
1455;DHT22;721;48.168;12.818;2022-09-09T08:08:20;16.80;38.00
1455;DHT22;721;48.168;12.818;2022-09-09T08:10:46;16.70;34.40
1455;DHT22;721;48.168;12.818;2022-09-09T08:13:13;16.70;32.30
1455;DHT22;721;48.168;12.818;2022-09-09T08:15:40;16.60;33.30
1455;DHT22;721;48.168;12.818;2022-09-09T08:18:07;16.60;33.50
1455;DHT22;721;48.168;12.818;2022-09-09T08:20:36;16.70;31.90
1455;DHT22;721;48.168;12.818;2022-09-09T08:23:03;16.80;31.80
1455;DHT22;721;48.168;12.818;2022-09-09T08:25:31;16.90;29.50
1455;DHT22;721;48.168;12.818;2022-09-09T08:28:00;16.90;29.10
1455;DHT22;721;48.168;12.818;2022-09-09T08:30:27;16.90;31.20
1455;DHT22;721;48.168;12.818;2022-09-09T08:32:53;16.90;27.00
1455;DHT22;721;48.168;12.818;2022-09-09T08:35:20;16.90;27.90
1455;DHT22;721;48.168;12.818;2022-09-09T08:37:47;16.80;31.00
1455;DHT22;721;48.168;12.818;2022-09-09T08:40:20;16.90;31.10
1455;DHT22;721;48.168;12.818;2022-09-09T08:42:52;17.10;29.90
1455;DHT22;721;48.168;12.818;2022-09-09T08:45:25;17.00;28.10
1455;DHT22;721;48.168;12.818;2022-09-09T08:48:03;17.20;28.50
1455;DHT22;721;48.168;12.818;2022-09-09T08:50:36;17.20;28.60
1455;DHT22;721;48.168;12.818;2022-09-09T08:53:08;17.30;31.20
1455;DHT22;721;48.168;12.818;2022-09-09T08:55:41;17.40;28.70
1455;DHT22;721;48.168;12.818;2022-09-09T08:58:14;17.40;29.10
1455;DHT22;721;48.168;12.818;2022-09-09T09:01:02;17.40;29.40
1455;DHT22;721;48.168;12.818;2022-09-09T09:03:43;17.40;27.50
1455;DHT22;721;48.168;12.818;2022-09-09T09:06:25;17.50;26.40
1455;DHT22;721;48.168;12.818;2022-09-09T09:09:01;17.40;29.10
1455;DHT22;721;48.168;12.818;2022-09-09T09:11:35;17.30;27.90
1455;DHT22;721;48.168;12.818;2022-09-09T09:14:09;17.30;29.20
1455;DHT22;721;48.168;12.818;2022-09-09T09:16:41;17.30;25.70
1455;DHT22;721;48.168;12.818;2022-09-09T09:19:14;17.30;28.90
1455;DHT22;721;48.168;12.818;2022-09-09T09:21:43;17.30;28.00
1455;DHT22;721;48.168;12.818;2022-09-09T09:24:16;17.20;28.10
1455;DHT22;721;48.168;12.818;2022-09-09T09:26:44;17.30;28.00
1455;DHT22;721;48.168;12.818;2022-09-09T09:29:16;17.30;29.10
1455;DHT22;721;48.168;12.818;2022-09-09T09:31:45;17.30;29.30
1455;DHT22;721;48.168;12.818;2022-09-09T09:34:13;17.30;28.70
1455;DHT22;721;48.168;12.818;2022-09-09T09:36:42;16.90;30.20
1455;DHT22;721;48.168;12.818;2022-09-09T09:39:10;17.10;32.70
1455;DHT22;721;48.168;12.818;2022-09-09T09:41:38;17.20;32.10
1455;DHT22;721;48.168;12.818;2022-09-09T09:44:23;17.50;32.60
1455;DHT22;721;48.168;12.818;2022-09-09T09:46:51;17.70;32.80
1455;DHT22;721;48.168;12.818;2022-09-09T09:49:18;17.70;29.00
1455;DHT22;721;48.168;12.818;2022-09-09T09:51:45;17.60;32.00
1455;DHT22;721;48.168;12.818;2022-09-09T09:54:24;17.70;30.00
1455;DHT22;721;48.168;12.818;2022-09-09T09:56:53;17.70;31.20
1455;DHT22;721;48.168;12.818;2022-09-09T09:59:22;17.80;32.90
1455;DHT22;721;48.168;12.818;2022-09-09T10:01:50;18.00;31.90
1455;DHT22;721;48.168;12.818;2022-09-09T10:04:18;18.00;31.40
1455;DHT22;721;48.168;12.818;2022-09-09T10:06:46;17.90;31.30
1455;DHT22;721;48.168;12.818;2022-09-09T10:09:24;17.80;30.00
1455;DHT22;721;48.168;12.818;2022-09-09T10:11:57;17.70;30.40
1455;DHT22;721;48.168;12.818;2022-09-09T10:14:29;17.60;31.10
1455;DHT22;721;48.168;12.818;2022-09-09T10:17:17;17.60;34.10
1455;DHT22;721;48.168;12.818;2022-09-09T10:19:56;17.60;32.70
1455;DHT22;721;48.168;12.818;2022-09-09T10:22:34;17.70;31.20
1455;DHT22;721;48.168;12.818;2022-09-09T10:25:22;17.60;31.70
1455;DHT22;721;48.168;12.818;2022-09-09T10:30:55;17.50;40.10
1455;DHT22;721;48.168;12.818;2022-09-09T10:33:32;17.60;38.30
1455;DHT22;721;48.168;12.818;2022-09-09T10:36:07;17.60;38.00
1455;DHT22;721;48.168;12.818;2022-09-09T10:38:40;17.60;39.60
1455;DHT22;721;48.168;12.818;2022-09-09T10:41:16;17.50;41.20
1455;DHT22;721;48.168;12.818;2022-09-09T10:44:01;17.50;42.60
1455;DHT22;721;48.168;12.818;2022-09-09T10:46:40;17.60;42.70
1455;DHT22;721;48.168;12.818;2022-09-09T10:49:17;17.60;45.50
1455;DHT22;721;48.168;12.818;2022-09-09T10:51:53;17.60;45.80
1455;DHT22;721;48.168;12.818;2022-09-09T10:54:32;17.60;44.30
1455;DHT22;721;48.168;12.818;2022-09-09T10:57:11;17.70;41.60
1455;DHT22;721;48.168;12.818;2022-09-09T10:59:43;17.70;46.40
1455;DHT22;721;48.168;12.818;2022-09-09T11:02:16;17.80;48.70
1455;DHT22;721;48.168;12.818;2022-09-09T11:04:49;17.80;48.50
1455;DHT22;721;48.168;12.818;2022-09-09T11:07:26;17.80;48.00
1455;DHT22;721;48.168;12.818;2022-09-09T11:09:59;17.80;45.20
1455;DHT22;721;48.168;12.818;2022-09-09T11:12:27;17.80;46.50
1455;DHT22;721;48.168;12.818;2022-09-09T11:15:01;17.80;48.90
1455;DHT22;721;48.168;12.818;2022-09-09T11:17:33;18.00;50.40
1455;DHT22;721;48.168;12.818;2022-09-09T11:20:06;18.00;43.80
1455;DHT22;721;48.168;12.818;2022-09-09T11:22:42;18.00;48.30
1455;DHT22;721;48.168;12.818;2022-09-09T11:25:15;18.00;46.80
1455;DHT22;721;48.168;12.818;2022-09-09T11:27:52;18.10;43.10
1455;DHT22;721;48.168;12.818;2022-09-09T11:30:27;18.10;42.30
1455;DHT22;721;48.168;12.818;2022-09-09T11:33:36;18.10;43.40
1455;DHT22;721;48.168;12.818;2022-09-09T11:36:19;18.10;39.20
1455;DHT22;721;48.168;12.818;2022-09-09T11:38:51;18.10;36.20
1455;DHT22;721;48.168;12.818;2022-09-09T11:41:19;18.10;35.40
1455;DHT22;721;48.168;12.818;2022-09-09T11:43:48;18.10;35.70
1455;DHT22;721;48.168;12.818;2022-09-09T11:46:18;18.10;36.70
1455;DHT22;721;48.168;12.818;2022-09-09T11:48:58;18.10;36.60
1455;DHT22;721;48.168;12.818;2022-09-09T11:51:28;18.20;33.30
1455;DHT22;721;48.168;12.818;2022-09-09T11:53:57;18.20;38.20
1455;DHT22;721;48.168;12.818;2022-09-09T11:56:28;18.20;49.10
1455;DHT22;721;48.168;12.818;2022-09-09T11:58:59;18.10;49.80
1455;DHT22;721;48.168;12.818;2022-09-09T12:01:35;18.10;49.00
1455;DHT22;721;48.168;12.818;2022-09-09T12:04:11;18.20;46.80
1455;DHT22;721;48.168;12.818;2022-09-09T12:06:45;18.20;46.30
1455;DHT22;721;48.168;12.818;2022-09-09T12:09:19;18.20;43.30
1455;DHT22;721;48.168;12.818;2022-09-09T12:11:48;18.20;44.00
1455;DHT22;721;48.168;12.818;2022-09-09T12:14:34;18.20;45.50
1455;DHT22;721;48.168;12.818;2022-09-09T12:17:10;18.40;46.20
1455;DHT22;721;48.168;12.818;2022-09-09T12:19:43;18.40;45.60
1455;DHT22;721;48.168;12.818;2022-09-09T12:22:18;18.40;46.10
1455;DHT22;721;48.168;12.818;2022-09-09T12:24:52;18.50;45.20
1455;DHT22;721;48.168;12.818;2022-09-09T12:27:24;18.40;45.80
1455;DHT22;721;48.168;12.818;2022-09-09T12:29:57;18.40;46.90
1455;DHT22;721;48.168;12.818;2022-09-09T12:32:26;18.30;47.20
1455;DHT22;721;48.168;12.818;2022-09-09T12:34:55;18.40;45.20
1455;DHT22;721;48.168;12.818;2022-09-09T12:37:29;18.30;45.60
1455;DHT22;721;48.168;12.818;2022-09-09T12:39:59;18.40;43.70
1455;DHT22;721;48.168;12.818;2022-09-09T12:42:28;18.30;45.60
1455;DHT22;721;48.168;12.818;2022-09-09T12:44:56;18.30;46.70
1455;DHT22;721;48.168;12.818;2022-09-09T12:47:28;18.30;46.40
1455;DHT22;721;48.168;12.818;2022-09-09T12:49:56;18.30;47.60
1455;DHT22;721;48.168;12.818;2022-09-09T12:52:28;18.20;50.00
1455;DHT22;721;48.168;12.818;2022-09-09T12:54:57;18.30;47.20
1455;DHT22;721;48.168;12.818;2022-09-09T12:57:26;18.30;47.80
1455;DHT22;721;48.168;12.818;2022-09-09T13:00:04;18.30;46.20
1455;DHT22;721;48.168;12.818;2022-09-09T13:02:32;18.30;50.30
1455;DHT22;721;48.168;12.818;2022-09-09T13:05:08;18.30;48.20
1455;DHT22;721;48.168;12.818;2022-09-09T13:07:41;18.30;49.80
1455;DHT22;721;48.168;12.818;2022-09-09T13:10:11;18.10;50.20
1455;DHT22;721;48.168;12.818;2022-09-09T13:12:38;18.20;51.20
1455;DHT22;721;48.168;12.818;2022-09-09T13:15:16;18.20;51.00
1455;DHT22;721;48.168;12.818;2022-09-09T13:17:50;18.10;49.10
1455;DHT22;721;48.168;12.818;2022-09-09T13:20:18;18.10;48.10
1455;DHT22;721;48.168;12.818;2022-09-09T13:22:47;18.10;52.80
1455;DHT22;721;48.168;12.818;2022-09-09T13:25:19;18.10;50.60
1455;DHT22;721;48.168;12.818;2022-09-09T13:27:53;18.20;52.90
1455;DHT22;721;48.168;12.818;2022-09-09T13:30:22;18.20;53.70
1455;DHT22;721;48.168;12.818;2022-09-09T13:33:04;18.10;52.60
1455;DHT22;721;48.168;12.818;2022-09-09T13:35:31;18.10;54.10
1455;DHT22;721;48.168;12.818;2022-09-09T13:38:06;17.90;52.60
1455;DHT22;721;48.168;12.818;2022-09-09T13:40:34;17.90;52.60
1455;DHT22;721;48.168;12.818;2022-09-09T13:43:02;17.90;54.80
1455;DHT22;721;48.168;12.818;2022-09-09T13:45:31;18.00;52.20
1455;DHT22;721;48.168;12.818;2022-09-09T13:48:09;18.20;51.20
1455;DHT22;721;48.168;12.818;2022-09-09T13:50:36;18.20;48.70
1455;DHT22;721;48.168;12.818;2022-09-09T13:53:04;18.30;49.60
1455;DHT22;721;48.168;12.818;2022-09-09T13:55:31;18.30;50.60
1455;DHT22;721;48.168;12.818;2022-09-09T13:57:59;18.30;51.50
1455;DHT22;721;48.168;12.818;2022-09-09T14:00:29;18.30;54.60
1455;DHT22;721;48.168;12.818;2022-09-09T14:02:56;18.40;52.50
1455;DHT22;721;48.168;12.818;2022-09-09T14:05:23;18.40;52.80
1455;DHT22;721;48.168;12.818;2022-09-09T14:07:50;18.50;51.10
1455;DHT22;721;48.168;12.818;2022-09-09T14:10:18;18.60;49.10
1455;DHT22;721;48.168;12.818;2022-09-09T14:12:46;18.60;48.70
1455;DHT22;721;48.168;12.818;2022-09-09T14:15:13;18.60;45.50
1455;DHT22;721;48.168;12.818;2022-09-09T14:17:39;18.80;42.70
1455;DHT22;721;48.168;12.818;2022-09-09T14:20:08;18.70;48.30
1455;DHT22;721;48.168;12.818;2022-09-09T14:22:36;18.60;45.50
1455;DHT22;721;48.168;12.818;2022-09-09T14:25:04;18.40;43.40
1455;DHT22;721;48.168;12.818;2022-09-09T14:27:32;18.60;45.40
1455;DHT22;721;48.168;12.818;2022-09-09T14:30:00;18.70;45.50
1455;DHT22;721;48.168;12.818;2022-09-09T14:32:27;18.70;44.20
1455;DHT22;721;48.168;12.818;2022-09-09T14:34:54;18.70;43.10
1455;DHT22;721;48.168;12.818;2022-09-09T14:37:21;18.80;43.20
1455;DHT22;721;48.168;12.818;2022-09-09T14:39:48;18.90;43.60
1455;DHT22;721;48.168;12.818;2022-09-09T14:42:16;18.80;39.40
1455;DHT22;721;48.168;12.818;2022-09-09T14:44:44;18.80;41.10
1455;DHT22;721;48.168;12.818;2022-09-09T14:47:11;18.70;38.00
1455;DHT22;721;48.168;12.818;2022-09-09T14:49:37;19.00;39.70
1455;DHT22;721;48.168;12.818;2022-09-09T14:52:04;19.00;34.70
1455;DHT22;721;48.168;12.818;2022-09-09T14:54:32;19.10;33.50
1455;DHT22;721;48.168;12.818;2022-09-09T14:56:59;18.90;30.80
1455;DHT22;721;48.168;12.818;2022-09-09T14:59:25;18.90;31.70
1455;DHT22;721;48.168;12.818;2022-09-09T15:01:53;19.00;33.90
1455;DHT22;721;48.168;12.818;2022-09-09T15:04:20;18.80;28.90
1455;DHT22;721;48.168;12.818;2022-09-09T15:06:47;18.50;30.50
1455;DHT22;721;48.168;12.818;2022-09-09T15:09:15;18.50;31.40
1455;DHT22;721;48.168;12.818;2022-09-09T15:11:42;18.50;33.60
1455;DHT22;721;48.168;12.818;2022-09-09T15:14:09;18.40;31.20
1455;DHT22;721;48.168;12.818;2022-09-09T15:16:38;18.50;31.90
1455;DHT22;721;48.168;12.818;2022-09-09T15:19:07;18.40;30.90
1455;DHT22;721;48.168;12.818;2022-09-09T15:21:36;18.40;33.50
1455;DHT22;721;48.168;12.818;2022-09-09T15:24:04;18.60;33.70
1455;DHT22;721;48.168;12.818;2022-09-09T15:26:34;18.60;35.90
1455;DHT22;721;48.168;12.818;2022-09-09T15:29:01;18.60;36.60
1455;DHT22;721;48.168;12.818;2022-09-09T15:31:30;18.50;35.20
1455;DHT22;721;48.168;12.818;2022-09-09T15:33:58;18.40;33.50
1455;DHT22;721;48.168;12.818;2022-09-09T15:36:29;18.40;33.60
1455;DHT22;721;48.168;12.818;2022-09-09T15:38:58;18.40;35.70
1455;DHT22;721;48.168;12.818;2022-09-09T15:41:25;18.40;38.10
1455;DHT22;721;48.168;12.818;2022-09-09T15:43:54;18.40;34.30
1455;DHT22;721;48.168;12.818;2022-09-09T15:46:28;18.40;38.10
1455;DHT22;721;48.168;12.818;2022-09-09T15:48:56;18.20;37.00
1455;DHT22;721;48.168;12.818;2022-09-09T15:51:24;18.10;35.50
1455;DHT22;721;48.168;12.818;2022-09-09T15:53:55;18.20;36.30
1455;DHT22;721;48.168;12.818;2022-09-09T15:56:22;18.10;36.70
1455;DHT22;721;48.168;12.818;2022-09-09T15:58:49;18.20;38.10
1455;DHT22;721;48.168;12.818;2022-09-09T16:01:17;18.00;36.50
1455;DHT22;721;48.168;12.818;2022-09-09T16:03:45;17.90;37.00
1455;DHT22;721;48.168;12.818;2022-09-09T16:06:14;17.90;36.70
1455;DHT22;721;48.168;12.818;2022-09-09T16:08:42;17.70;36.10
1455;DHT22;721;48.168;12.818;2022-09-09T16:11:12;17.60;32.70
1455;DHT22;721;48.168;12.818;2022-09-09T16:13:41;17.50;29.20
1455;DHT22;721;48.168;12.818;2022-09-09T16:16:10;17.50;27.10
1455;DHT22;721;48.168;12.818;2022-09-09T16:18:39;17.60;28.50
1455;DHT22;721;48.168;12.818;2022-09-09T16:21:06;17.60;26.90
1455;DHT22;721;48.168;12.818;2022-09-09T16:23:34;17.70;27.20
1455;DHT22;721;48.168;12.818;2022-09-09T16:26:01;17.50;26.00